LDZALOWG

Guest
Details From LDZA - Zagreb
To LOWG - Graz Thalerhof
Flight Number -
Tags generated
Created
Modified
Stats Distance 79 nm / 147 km
Max Altitude 400 ft / 122 m
Waypoints 3
Social Downloads 6
Likes 0
Share VATSIM

Download

Looking for another format? Having issues loading an existing format? Contact us
Advertisement - Login to hide

Notes

Basic altitude profile: - Ascent Rate: 2500ft/min - Ascent Speed: 250kts - Cruise Altitude: 35000ft - Cruise Speed: 420kts - Descent Rate: 1500ft/min - Descent Speed: 250kts Options: - Use NATs: yes - Use PACOTS: yes - Use low airways: yes - Use high airways: yes

Route

LDZA GRZ LOWG

ID Type Via Altitude Latitude Longitude Leg Dist Tot Dist Heading (true) Name
O LDZA APT - 0 ft / 0 m 45.74189˚ 16.06720˚ - 0 nm - Zagreb
GRZ VOR - 400 ft / 122 m 46.95537˚ 15.44943˚ 77 nm 77 nm 341° / 340° GRAZ VOR-DME
O LOWG APT - 0 ft / 0 m 46.99031˚ 15.43967˚ 2 nm 79 nm 349° / 349° Graz Thalerhof

Altitude Profile

Advertisement - Login to hide

LDZA

Details ICAO LDZA (ZAG)
Name Zagreb
Region Croatia
Timezone Europe/Zagreb (UTC+2.0)
Stats Elevation 353 ft / 108 m (AMSL)
Location 45.741890° 16.067200°
Runways 1
Magnetic Variation 4.009° E

METAR

Not found

TAF

TAF LDZA 272325Z 2800/2900 VRB02KT 9999 SCT045 TX28/2814Z TN15/2804Z PROB30 TEMPO 2814/2821 TSRA FEW030CB SCT035

Decode

Departure Runways

ID Width Length Bearing (true) Bearing (mag) Surface Threshold Offset Overrun Length
05 148 ft / 45 m 10,659 ft / 3,249 m 46.69° 42.68° Asphalt 0 ft / 0 m 195 ft / 59 m
23 148 ft / 45 m 10,659 ft / 3,249 m 226.71° 222.70° Asphalt 0 ft / 0 m 195 ft / 59 m

LOWG

Details ICAO LOWG (GRZ)
Name Graz Thalerhof
Region Austria
Timezone Europe/Vienna (UTC+2.0)
Stats Elevation 1,115 ft / 340 m (AMSL)
Location 46.990308° 15.439665°
Runways 3
Magnetic Variation 3.974° E

METAR

Not found

TAF

TAF LOWG 272315Z 2800/2824 VRB02KT 9999 FEW050 SCT110 BKN250 TX25/2812Z TN15/2803Z TEMPO 2809/2818 14006KT FEW050 FEW050CB BKN120 PROB40 TEMPO 2811/2818 VRB10G20KT TSRA FEW040 SCT050CB BKN070

Decode

Destination Runways

ID Width Length Bearing (true) Bearing (mag) Surface Threshold Offset Overrun Length
17C 148 ft / 45 m 9,852 ft / 3,003 m 169.37° 165.40° Asphalt 853 ft / 260 m 98 ft / 30 m
17L 98 ft / 30 m 2,102 ft / 641 m 169.41° 165.44° Grass 0 ft / 0 m 0 ft / 0 m
17R 82 ft / 25 m 2,496 ft / 761 m 169.40° 165.43° Grass 492 ft / 150 m 0 ft / 0 m
35C 148 ft / 45 m 9,852 ft / 3,003 m 349.37° 345.40° Asphalt 0 ft / 0 m 0 ft / 0 m
35L 82 ft / 25 m 2,496 ft / 761 m 349.40° 345.43° Grass 0 ft / 0 m 0 ft / 0 m
35R 98 ft / 30 m 2,102 ft / 641 m 349.41° 345.44° Grass 0 ft / 0 m 0 ft / 0 m

Approach Navaids

Runway Type Ident Frequency Range Bearing (true) Bearing (mag) Slope Elevation
35C Localiser OEG 110.90 MHz 18 nm / 33 km 349.36° 345.39° - 1,098 ft / 335 m (AMSL)
35C Glidescope OEG 110.90 MHz 10 nm / 19 km 349.37° 345.40° 3.00° 1,098 ft / 335 m (AMSL)
35C DME OEG 110.90 MHz 18 nm / 33 km - - - 1,098 ft / 335 m (AMSL)

Popular Alternatives